createdAt,value
2018-12-02T00:01:04.297Z,54.77
2018-12-02T00:03:34.712Z,55.20
2018-12-02T00:06:04.833Z,51.07
2018-12-02T00:08:35.137Z,49.50
2018-12-02T00:11:05.543Z,45.93
2018-12-02T00:13:35.642Z,37.23
2018-12-02T00:16:05.927Z,32.37
2018-12-02T00:18:36.261Z,34.07
2018-12-02T00:21:06.290Z,37.27
2018-12-02T00:23:36.593Z,40.73
2018-12-02T00:26:06.910Z,47.33
2018-12-02T00:28:37.065Z,45.37
2018-12-02T00:31:07.755Z,46.90
2018-12-02T00:33:37.922Z,45.27
2018-12-02T00:36:08.078Z,46.83
2018-12-02T00:38:38.293Z,51.10
2018-12-02T00:41:08.437Z,51.73
2018-12-02T00:43:38.807Z,55.20
2018-12-02T00:46:09.053Z,58.67
2018-12-02T00:48:39.473Z,64.23
2018-12-02T00:51:09.818Z,64.07
2018-12-02T00:53:40.043Z,52.17
2018-12-02T00:56:08.149Z,35.93
2018-12-02T00:58:38.313Z,55.03
2018-12-02T01:01:08.704Z,56.60
2018-12-02T01:03:38.898Z,53.77
2018-12-02T01:06:08.988Z,56.47
2018-12-02T01:08:39.623Z,56.17
2018-12-02T01:11:09.842Z,54.13
2018-12-02T01:13:40.449Z,54.50
2018-12-02T01:16:10.727Z,47.47
2018-12-02T01:18:40.723Z,51.47
2018-12-02T01:21:10.892Z,43.30
2018-12-02T01:23:41.403Z,48.77
2018-12-02T01:26:11.463Z,45.17
2018-12-02T01:28:41.707Z,42.63
2018-12-02T01:31:12.292Z,44.53
2018-12-02T01:33:42.792Z,46.87
2018-12-02T01:36:12.808Z,49.83
2018-12-02T01:38:42.957Z,49.73
2018-12-02T01:41:12.962Z,47.97
2018-12-02T01:43:43.247Z,47.47
2018-12-02T01:46:13.332Z,48.47
2018-12-02T01:48:43.722Z,49.50
2018-12-02T01:51:14.478Z,48.87
2018-12-02T01:53:44.532Z,47.53
2018-12-02T01:56:14.828Z,46.73
2018-12-02T01:58:45.362Z,46.67
2018-12-02T02:01:15.408Z,48.87
2018-12-02T02:03:45.868Z,48.17
2018-12-02T02:06:15.867Z,49.90
2018-12-02T02:08:46.143Z,50.07
2018-12-02T02:11:16.407Z,46.63
2018-12-02T02:13:46.442Z,48.40
2018-12-02T02:16:16.714Z,49.00
2018-12-02T02:18:47.257Z,49.57
2018-12-02T02:21:17.494Z,48.57
2018-12-02T02:23:47.571Z,51.07
2018-12-02T02:26:17.692Z,47.70
2018-12-02T02:28:47.887Z,46.27
2018-12-02T02:31:18.138Z,43.07
2018-12-02T02:33:48.251Z,47.27
2018-12-02T02:36:18.394Z,45.20
2018-12-02T02:38:48.507Z,41.17
2018-12-02T02:41:18.404Z,37.03
2018-12-02T02:43:48.526Z,33.83
2018-12-02T02:46:18.522Z,34.10
2018-12-02T02:48:48.577Z,32.03
2018-12-02T02:51:18.757Z,35.30
2018-12-02T02:53:48.837Z,43.63
2018-12-02T02:56:18.867Z,43.20
2018-12-02T02:58:49.312Z,44.43
2018-12-02T03:01:19.308Z,43.10
2018-12-02T03:03:49.332Z,47.50
2018-12-02T03:06:19.206Z,40.67
2018-12-02T03:08:49.107Z,43.50
2018-12-02T03:11:19.154Z,40.03
2018-12-02T03:13:49.071Z,39.03
2018-12-02T03:16:19.212Z,38.53
2018-12-02T03:18:49.432Z,40.80
2018-12-02T03:21:19.678Z,41.93
2018-12-02T03:23:49.988Z,42.03
2018-12-02T03:26:19.891Z,43.43
2018-12-02T03:28:50.328Z,44.33
2018-12-02T03:31:20.418Z,40.20
2018-12-02T03:33:50.409Z,35.53
2018-12-02T03:36:20.217Z,39.87
2018-12-02T03:38:50.231Z,38.43
2018-12-02T03:41:20.051Z,36.53
2018-12-02T03:43:49.871Z,40.30
2018-12-02T03:46:19.768Z,42.17
2018-12-02T03:48:49.872Z,39.73
2018-12-02T03:51:19.998Z,38.77
2018-12-02T03:53:50.067Z,38.33
2018-12-02T03:56:19.832Z,32.07
2018-12-02T03:58:49.937Z,36.10
2018-12-02T04:01:19.777Z,28.73
2018-12-02T04:03:49.852Z,25.80
2018-12-02T04:06:19.747Z,24.87
2018-12-02T04:08:50.004Z,27.77
2018-12-02T04:11:19.906Z,31.13
2018-12-02T04:13:50.272Z,33.60
2018-12-02T04:16:20.313Z,31.10
2018-12-02T04:18:50.126Z,30.07
2018-12-02T04:21:20.227Z,31.87
2018-12-02T04:23:50.498Z,30.50
2018-12-02T04:26:20.247Z,33.70
2018-12-02T04:28:50.428Z,35.27
2018-12-02T04:31:20.493Z,40.13
2018-12-02T04:33:50.688Z,41.90
2018-12-02T04:36:20.589Z,42.83
2018-12-02T04:38:50.417Z,40.17
2018-12-02T04:41:20.448Z,39.23
2018-12-02T04:43:50.394Z,40.63
2018-12-02T04:46:20.232Z,38.90
2018-12-02T04:48:49.979Z,42.77
2018-12-02T04:51:19.968Z,41.97
2018-12-02T04:53:50.267Z,41.60
2018-12-02T04:56:20.253Z,39.97
2018-12-02T04:58:50.395Z,42.60
2018-12-02T05:01:20.188Z,42.77
2018-12-02T05:03:50.281Z,39.17
2018-12-02T05:06:20.348Z,40.33
2018-12-02T05:08:50.428Z,39.30
2018-12-02T05:11:20.448Z,40.73
2018-12-02T05:13:50.603Z,38.97
2018-12-02T05:16:20.608Z,38.57
2018-12-02T05:18:50.914Z,38.27
2018-12-02T05:21:20.774Z,38.60
2018-12-02T05:23:50.879Z,39.13
2018-12-02T05:26:20.746Z,37.63
2018-12-02T05:28:50.878Z,41.77
2018-12-02T05:31:20.998Z,39.73
2018-12-02T05:33:51.120Z,40.37
2018-12-02T05:36:21.318Z,39.23
2018-12-02T05:38:51.568Z,41.03
2018-12-02T05:41:21.787Z,38.67
2018-12-02T05:43:51.913Z,38.57
2018-12-02T05:46:21.803Z,37.57
2018-12-02T05:48:51.848Z,38.20
2018-12-02T05:51:21.812Z,39.87
2018-12-02T05:53:51.802Z,37.03
2018-12-02T05:56:21.847Z,35.70
2018-12-02T05:58:51.669Z,38.30
2018-12-02T06:01:21.837Z,35.90
2018-12-02T06:03:51.788Z,37.30
2018-12-02T06:06:21.809Z,36.63
2018-12-02T06:08:51.993Z,36.87
2018-12-02T06:11:22.073Z,37.03
2018-12-02T06:13:52.167Z,36.40
2018-12-02T06:16:22.428Z,38.63
2018-12-02T06:18:52.643Z,37.13
2018-12-02T06:21:22.567Z,34.57
2018-12-02T06:23:52.767Z,36.07
2018-12-02T06:26:26.882Z,35.17
2018-12-02T06:28:59.612Z,34.00
2018-12-02T06:31:32.754Z,35.53
2018-12-02T06:34:03.824Z,34.00
2018-12-02T06:36:39.733Z,33.00
2018-12-02T06:39:13.896Z,36.87
2018-12-02T06:41:51.318Z,35.50
2018-12-02T06:44:31.152Z,35.90
2018-12-02T06:47:11.202Z,32.93
2018-12-02T06:49:48.902Z,33.63
2018-12-02T06:52:23.802Z,33.00
2018-12-02T06:55:04.973Z,34.27
2018-12-02T06:57:40.943Z,34.70
2018-12-02T07:00:27.413Z,33.63
2018-12-02T07:03:12.783Z,35.83
2018-12-02T07:05:56.653Z,34.53
2018-12-02T07:08:32.012Z,35.17
2018-12-02T07:11:15.384Z,36.17
2018-12-02T07:13:47.972Z,35.73
2018-12-02T07:16:19.777Z,33.43
2018-12-02T07:18:52.868Z,36.43
2018-12-02T07:21:26.648Z,34.47
2018-12-02T07:24:04.437Z,32.93
2018-12-02T07:26:39.823Z,33.10
2018-12-02T07:29:11.952Z,36.17
2018-12-02T07:31:47.042Z,37.93
2018-12-02T07:34:20.613Z,36.60
2018-12-02T07:36:53.472Z,37.20
2018-12-02T07:39:52.122Z,37.40
2018-12-02T07:42:39.037Z,37.73
2018-12-02T07:48:14.245Z,32.50
2018-12-02T07:50:45.032Z,35.30
2018-12-02T07:53:18.382Z,36.13
2018-12-02T07:56:06.572Z,36.40
2018-12-02T07:58:48.002Z,37.17
2018-12-02T08:01:18.907Z,37.80
2018-12-02T08:04:00.107Z,37.87
2018-12-02T08:06:41.982Z,36.83
2018-12-02T08:12:17.638Z,36.83
2018-12-02T08:15:03.463Z,35.13
2018-12-02T08:17:53.852Z,36.83
2018-12-02T08:20:29.972Z,36.13
2018-12-02T08:23:00.373Z,39.07
2018-12-02T08:25:30.517Z,39.37
2018-12-02T08:28:01.132Z,38.93
2018-12-02T08:30:31.992Z,40.10
2018-12-02T08:33:02.496Z,39.23
2018-12-02T08:35:32.694Z,40.73
2018-12-02T08:38:06.042Z,40.20
2018-12-02T08:40:36.586Z,37.67
2018-12-02T08:43:07.871Z,40.23
2018-12-02T08:45:38.420Z,38.67
2018-12-02T08:48:08.782Z,40.27
2018-12-02T08:50:38.856Z,38.60
2018-12-02T08:53:09.122Z,38.77
2018-12-02T08:55:39.311Z,38.17
2018-12-02T08:58:09.574Z,38.73
2018-12-02T09:00:39.722Z,39.90
2018-12-02T09:03:11.037Z,38.20
2018-12-02T09:05:41.776Z,40.03
2018-12-02T09:08:12.817Z,38.67
2018-12-02T09:10:45.744Z,41.00
2018-12-02T09:13:14.578Z,40.47
2018-12-02T09:15:44.987Z,37.20
2018-12-02T09:18:15.442Z,40.13
2018-12-02T09:20:45.812Z,38.40
2018-12-02T09:23:16.387Z,37.37
2018-12-02T09:25:46.722Z,39.87
2018-12-02T09:28:17.052Z,38.70
2018-12-02T09:30:47.457Z,39.13
2018-12-02T09:33:17.962Z,40.93
2018-12-02T09:35:48.198Z,42.80
2018-12-02T09:38:18.433Z,41.60
2018-12-02T09:40:49.377Z,42.67
2018-12-02T09:43:19.777Z,44.00
2018-12-02T09:45:50.228Z,43.10
2018-12-02T09:48:20.503Z,42.87
2018-12-02T09:50:50.907Z,42.80
2018-12-02T09:53:21.292Z,40.27
2018-12-02T09:55:51.948Z,42.47
2018-12-02T09:58:28.173Z,41.20
2018-12-02T10:00:59.852Z,42.17
2018-12-02T10:03:30.464Z,42.83
2018-12-02T10:06:00.958Z,42.73
2018-12-02T10:08:31.828Z,42.70
2018-12-02T10:11:02.543Z,45.57
2018-12-02T10:13:33.268Z,43.07
2018-12-02T10:16:03.982Z,45.97
2018-12-02T10:18:34.667Z,43.30
2018-12-02T10:21:05.167Z,46.20
2018-12-02T10:23:35.833Z,46.50
2018-12-02T10:26:07.198Z,48.37
2018-12-02T10:28:37.298Z,46.03
2018-12-02T10:31:07.648Z,42.37
2018-12-02T10:33:37.718Z,45.63
2018-12-02T10:36:07.748Z,44.90
2018-12-02T10:38:38.048Z,44.50
2018-12-02T10:41:08.257Z,44.60
2018-12-02T10:43:38.452Z,43.67
2018-12-02T10:46:08.667Z,44.53
2018-12-02T10:48:38.803Z,47.00
2018-12-02T10:51:09.402Z,43.83
2018-12-02T10:53:40.847Z,46.63
2018-12-02T10:56:12.017Z,45.73
2018-12-02T10:58:42.266Z,38.47
2018-12-02T11:01:19.037Z,46.93
2018-12-02T11:03:50.033Z,45.10
2018-12-02T11:06:20.227Z,43.53
2018-12-02T11:08:50.518Z,41.20
2018-12-02T11:11:20.439Z,43.47
2018-12-02T11:13:50.407Z,46.70
2018-12-02T11:16:20.575Z,46.47
2018-12-02T11:18:51.097Z,47.40
2018-12-02T11:21:21.032Z,46.37
2018-12-02T11:23:51.567Z,49.27
2018-12-02T11:26:22.357Z,48.40
2018-12-02T11:28:52.473Z,50.33
2018-12-02T11:31:22.808Z,49.17
2018-12-02T11:33:53.067Z,48.83
2018-12-02T11:36:23.874Z,49.27
2018-12-02T11:38:55.128Z,47.13
2018-12-02T11:41:26.042Z,45.53
2018-12-02T11:43:56.352Z,46.83
2018-12-02T11:46:26.918Z,49.37
2018-12-02T11:48:56.872Z,47.40
2018-12-02T11:51:27.163Z,47.27
2018-12-02T11:53:57.843Z,47.03
2018-12-02T11:56:28.282Z,49.23
2018-12-02T11:58:58.727Z,49.90
2018-12-02T12:01:28.982Z,46.60
2018-12-02T12:03:59.308Z,49.57
2018-12-02T12:06:29.742Z,48.67
2018-12-02T12:08:59.822Z,50.43
2018-12-02T12:11:29.757Z,47.50
2018-12-02T12:14:00.138Z,42.00
2018-12-02T12:16:30.391Z,52.93
2018-12-02T12:19:00.987Z,49.60
2018-12-02T12:21:31.413Z,51.90
2018-12-02T12:24:02.005Z,50.73
2018-12-02T12:26:32.203Z,50.80
2018-12-02T12:29:02.667Z,52.37
2018-12-02T12:31:32.977Z,51.00
2018-12-02T12:34:03.552Z,52.20
2018-12-02T12:36:34.023Z,47.03
2018-12-02T12:39:05.619Z,49.80
2018-12-02T12:41:36.292Z,50.60
2018-12-02T12:44:09.092Z,48.13
2018-12-02T12:46:40.062Z,48.20
2018-12-02T12:49:10.837Z,46.43
2018-12-02T12:51:41.522Z,49.87
2018-12-02T12:54:11.783Z,49.67
2018-12-02T12:56:42.322Z,51.13
2018-12-02T12:59:12.958Z,50.93
2018-12-02T13:01:43.923Z,49.60
2018-12-02T13:04:14.253Z,48.77
2018-12-02T13:06:44.762Z,51.87
2018-12-02T13:09:15.494Z,47.87
2018-12-02T13:11:45.842Z,52.37
2018-12-02T13:14:16.179Z,52.30
2018-12-02T13:16:46.782Z,50.27
2018-12-02T13:19:17.152Z,49.53
2018-12-02T13:21:47.768Z,48.80
2018-12-02T13:24:17.993Z,53.30
2018-12-02T13:26:48.727Z,53.37
2018-12-02T13:29:18.993Z,50.57
2018-12-02T13:31:49.348Z,49.70
2018-12-02T13:34:19.322Z,51.00
2018-12-02T13:36:49.917Z,53.30
2018-12-02T13:39:20.927Z,52.07
2018-12-02T13:41:51.552Z,51.07
2018-12-02T13:44:22.053Z,52.83
2018-12-02T13:46:52.542Z,51.23
2018-12-02T13:49:23.458Z,51.07
2018-12-02T13:51:53.728Z,50.03
2018-12-02T13:54:29.332Z,52.10
2018-12-02T13:56:59.768Z,50.67
2018-12-02T13:59:30.274Z,52.77
2018-12-02T14:02:00.777Z,53.17
2018-12-02T14:04:30.943Z,50.73
2018-12-02T14:07:01.659Z,50.97
2018-12-02T14:09:33.033Z,52.67
2018-12-02T14:12:03.309Z,53.53
2018-12-02T14:14:38.168Z,54.17
2018-12-02T14:17:11.309Z,52.70
2018-12-02T14:19:42.838Z,52.83
2018-12-02T14:22:13.458Z,52.90
2018-12-02T14:24:44.010Z,52.67
2018-12-02T14:27:14.948Z,52.80
2018-12-02T14:29:48.702Z,52.13
2018-12-02T14:32:19.612Z,51.70
2018-12-02T14:34:50.473Z,52.27
2018-12-02T14:37:21.728Z,52.73
2018-12-02T14:39:52.573Z,53.20
2018-12-02T14:42:23.759Z,53.47
2018-12-02T14:44:54.283Z,51.20
2018-12-02T14:47:25.113Z,54.23
2018-12-02T14:49:55.922Z,51.93
2018-12-02T14:52:26.369Z,49.10
2018-12-02T14:54:57.262Z,52.93
2018-12-02T14:57:27.467Z,50.37
2018-12-02T14:59:57.738Z,49.70
2018-12-02T15:02:27.914Z,51.13
2018-12-02T15:04:58.143Z,47.53
2018-12-02T15:07:28.368Z,50.50
2018-12-02T15:09:59.122Z,49.93
2018-12-02T15:12:29.297Z,49.30
2018-12-02T15:14:59.803Z,51.13
2018-12-02T15:17:30.278Z,49.80
2018-12-02T15:20:00.503Z,51.23
2018-12-02T15:22:30.854Z,49.30
2018-12-02T15:25:01.394Z,50.60
2018-12-02T15:27:31.818Z,48.83
2018-12-02T15:30:01.888Z,49.70
2018-12-02T15:32:33.058Z,51.33
2018-12-02T15:35:03.298Z,50.27
2018-12-02T15:37:33.373Z,50.50
2018-12-02T15:40:03.549Z,50.17
2018-12-02T15:42:33.953Z,50.20
2018-12-02T15:45:04.708Z,51.93
2018-12-02T15:47:34.744Z,50.93
2018-12-02T15:50:05.373Z,53.03
2018-12-02T15:52:35.864Z,51.13
2018-12-02T15:55:06.779Z,53.03
2018-12-02T15:57:37.169Z,51.40
2018-12-02T16:00:21.105Z,48.97
2018-12-02T16:02:51.716Z,49.00
2018-12-02T16:05:22.369Z,52.77
2018-12-02T16:07:52.835Z,50.13
2018-12-02T16:10:22.900Z,50.60
2018-12-02T16:12:53.644Z,50.90
2018-12-02T16:15:27.979Z,48.53
2018-12-02T16:17:58.148Z,52.33
2018-12-02T16:20:31.084Z,52.83
2018-12-02T16:23:01.000Z,54.43
2018-12-02T16:25:31.193Z,53.93
2018-12-02T16:28:01.023Z,53.07
2018-12-02T16:30:31.638Z,53.43
2018-12-02T16:33:01.568Z,52.93
2018-12-02T16:35:31.848Z,52.17
2018-12-02T16:38:02.079Z,50.30
2018-12-02T16:40:32.723Z,52.47
2018-12-02T16:43:03.159Z,53.10
2018-12-02T16:45:33.264Z,51.90
2018-12-02T16:48:03.454Z,51.67
2018-12-02T16:50:35.948Z,49.70
2018-12-02T16:53:37.209Z,50.20
2018-12-02T16:56:12.957Z,49.00
2018-12-02T16:59:50.815Z,48.77
2018-12-02T17:02:21.079Z,45.67
2018-12-02T17:04:50.978Z,50.97
2018-12-02T17:07:21.429Z,47.90
2018-12-02T17:09:52.051Z,46.13
2018-12-02T17:12:22.539Z,45.70
2018-12-02T17:14:52.329Z,47.27
2018-12-02T17:17:22.983Z,47.10
2018-12-02T17:19:53.304Z,47.33
2018-12-02T17:22:23.329Z,46.10
2018-12-02T17:24:53.774Z,49.30
2018-12-02T17:27:24.154Z,48.33
2018-12-02T17:29:54.413Z,46.27
2018-12-02T17:32:25.074Z,48.83
2018-12-02T17:34:55.483Z,47.07
2018-12-02T17:37:25.785Z,47.27
2018-12-02T17:39:56.779Z,47.40
2018-12-02T17:42:27.329Z,47.03
2018-12-02T17:44:57.683Z,49.17
2018-12-02T17:47:28.059Z,48.63
2018-12-02T17:49:58.989Z,46.77
2018-12-02T17:52:29.983Z,48.67
2018-12-02T17:55:01.028Z,46.87
2018-12-02T17:57:31.244Z,46.80
2018-12-02T18:00:01.689Z,47.60
2018-12-02T18:02:32.044Z,47.67
2018-12-02T18:05:02.429Z,45.93
2018-12-02T18:07:33.489Z,47.70
2018-12-02T18:10:03.919Z,49.33
2018-12-02T18:12:33.919Z,51.27
2018-12-02T18:15:04.385Z,52.93
2018-12-02T18:17:34.464Z,48.60
2018-12-02T18:20:05.524Z,46.60
2018-12-02T18:22:35.844Z,46.33
2018-12-02T18:25:06.804Z,48.07
2018-12-02T18:27:37.000Z,48.00
2018-12-02T18:30:18.290Z,45.40
2018-12-02T18:32:49.287Z,45.47
2018-12-02T18:36:24.719Z,47.10
2018-12-02T18:38:55.384Z,51.30
2018-12-02T18:41:31.910Z,45.23
2018-12-02T18:44:02.174Z,42.83
2018-12-02T18:46:32.405Z,48.80
2018-12-02T18:49:02.729Z,48.77
2018-12-02T18:51:33.262Z,49.47
2018-12-02T18:54:03.370Z,48.90
2018-12-02T18:56:33.614Z,47.60
2018-12-02T18:59:03.974Z,48.90
2018-12-02T19:01:34.194Z,47.47
2018-12-02T19:04:05.113Z,48.87
2018-12-02T19:06:35.449Z,50.23
2018-12-02T19:09:08.476Z,49.47
2018-12-02T19:11:39.591Z,46.60
2018-12-02T19:14:10.424Z,51.13
2018-12-02T19:16:40.732Z,47.60
2018-12-02T19:19:11.055Z,48.27
2018-12-02T19:21:41.794Z,54.20
2018-12-02T19:24:12.384Z,49.07
2018-12-02T19:26:42.374Z,47.93
2018-12-02T19:29:13.154Z,43.40
2018-12-02T19:31:43.189Z,48.20
2018-12-02T19:34:13.544Z,48.20
2018-12-02T19:36:47.189Z,46.50
2018-12-02T19:39:17.997Z,48.87
2018-12-02T19:41:48.474Z,44.57
2018-12-02T19:44:18.866Z,44.20
2018-12-02T19:46:49.034Z,43.27
2018-12-02T19:49:19.279Z,45.43
2018-12-02T19:51:49.468Z,45.93
2018-12-02T19:54:19.785Z,49.27
2018-12-02T19:56:50.034Z,52.63
2018-12-02T19:59:20.404Z,48.37
2018-12-02T20:01:50.455Z,47.23
2018-12-02T20:04:21.071Z,51.30
2018-12-02T20:06:51.620Z,47.33
2018-12-02T20:09:22.074Z,49.43
2018-12-02T20:11:52.144Z,48.30
2018-12-02T20:14:22.094Z,46.17
2018-12-02T20:16:52.093Z,46.10
2018-12-02T20:19:27.321Z,47.23
2018-12-02T20:21:57.489Z,45.53
2018-12-02T20:24:32.725Z,45.13
2018-12-02T20:27:02.743Z,46.13
2018-12-02T20:29:33.159Z,50.87
2018-12-02T20:32:03.424Z,50.00
2018-12-02T20:34:33.885Z,54.97
2018-12-02T20:37:04.261Z,49.70
2018-12-02T20:39:34.849Z,53.97
2018-12-02T20:42:05.279Z,52.43
2018-12-02T20:44:35.374Z,56.33
2018-12-02T20:47:05.293Z,57.33
2018-12-02T20:49:35.955Z,52.47
2018-12-02T20:52:06.667Z,55.80
2018-12-02T20:54:37.079Z,57.33
2018-12-02T20:57:07.759Z,60.63
2018-12-02T20:59:37.879Z,63.03
2018-12-02T21:02:08.265Z,67.30
2018-12-02T21:04:38.631Z,71.20
2018-12-02T21:07:09.098Z,65.00
2018-12-02T21:09:39.434Z,63.60
2018-12-02T21:12:09.619Z,49.90
2018-12-02T21:14:40.091Z,56.07
2018-12-02T21:17:10.565Z,52.60
2018-12-02T21:19:41.335Z,45.87
2018-12-02T21:22:11.713Z,56.83
2018-12-02T21:24:41.999Z,56.50
2018-12-02T21:27:12.649Z,55.33
2018-12-02T21:29:42.850Z,54.07
2018-12-02T21:32:13.024Z,52.77
2018-12-02T21:34:43.562Z,51.57
2018-12-02T21:37:14.194Z,51.87
2018-12-02T21:39:44.339Z,49.03
2018-12-02T21:42:14.309Z,50.37
2018-12-02T21:44:44.865Z,51.07
2018-12-02T21:47:18.732Z,53.90
2018-12-02T21:49:45.488Z,48.97
2018-12-02T21:52:15.803Z,43.47
2018-12-02T21:54:46.768Z,46.07
2018-12-02T21:57:17.274Z,43.40
2018-12-02T21:59:47.693Z,39.13
2018-12-02T22:02:17.843Z,43.43
2018-12-02T22:04:48.118Z,46.30
2018-12-02T22:07:18.309Z,50.10
2018-12-02T22:09:48.861Z,47.57
2018-12-02T22:12:19.349Z,50.43
2018-12-02T22:14:49.648Z,53.87
2018-12-02T22:17:19.928Z,52.50
2018-12-02T22:19:50.193Z,50.70
2018-12-02T22:22:20.413Z,48.67
2018-12-02T22:24:50.808Z,47.97
2018-12-02T22:27:21.428Z,51.27
2018-12-02T22:29:51.804Z,52.37
2018-12-02T22:32:21.744Z,51.47
2018-12-02T22:34:52.065Z,53.77
2018-12-02T22:37:22.307Z,56.17
2018-12-02T22:39:52.623Z,54.10
2018-12-02T22:42:23.054Z,55.47
2018-12-02T22:44:52.923Z,57.87
2018-12-02T22:47:23.071Z,53.93
2018-12-02T22:49:53.503Z,55.27
2018-12-02T22:52:23.847Z,55.07
2018-12-02T22:54:54.133Z,56.13
2018-12-02T22:57:24.662Z,46.20
2018-12-02T22:59:55.183Z,42.60
2018-12-02T23:02:29.378Z,45.90
2018-12-02T23:04:59.643Z,40.10
2018-12-02T23:07:29.688Z,41.13
2018-12-02T23:09:59.968Z,45.00
2018-12-02T23:12:30.258Z,43.67
2018-12-02T23:15:00.787Z,45.07
2018-12-02T23:17:31.227Z,45.87
2018-12-02T23:20:02.337Z,48.03
2018-12-02T23:22:33.892Z,55.77
2018-12-02T23:25:04.747Z,56.10
2018-12-02T23:27:35.147Z,57.50
2018-12-02T23:30:06.477Z,51.63
2018-12-02T23:32:36.440Z,51.83
2018-12-02T23:35:07.732Z,53.90
2018-12-02T23:37:38.062Z,51.53
2018-12-02T23:40:15.722Z,51.40
2018-12-02T23:42:46.217Z,53.60
2018-12-02T23:45:16.758Z,50.80
2018-12-02T23:47:46.862Z,53.07
2018-12-02T23:50:18.097Z,52.37
2018-12-02T23:52:48.205Z,52.20
2018-12-02T23:55:19.673Z,53.30
2018-12-02T23:57:49.767Z,51.27
